Time;durP1;ratioP1;P1;durP2;ratioP2;P2;SDS_P1;SDS_P2;PMS_P1;PMS_P2;Temp;Humidity;BMP_temperature;BMP_pressure;BME280_temperature;BME280_humidity;BME280_pressure;Samples;Min_cycle;Max_cycle;Signal;HPM_P1;HPM_P2
2021/09/07 00:00:04;;;;;;;7.25;4.82;;;11.60;99.90;;;;;;20989902;28;20510;-60
2021/09/07 00:10:14;;;;;;;7.53;4.90;;;11.30;99.90;;;;;;20991223;28;20106;-56
2021/09/07 00:20:16;;;;;;;7.60;4.78;;;11.20;99.90;;;;;;21008395;28;20058;-60
2021/09/07 00:30:18;;;;;;;8.23;5.05;;;11.00;99.90;;;;;;21005477;28;20098;-59
2021/09/07 00:40:20;;;;;;;9.10;5.47;;;10.80;99.90;;;;;;20988512;28;20063;-60
2021/09/07 00:50:22;;;;;;;8.95;5.78;;;10.60;99.90;;;;;;21007317;28;20032;-58
2021/09/07 01:00:24;;;;;;;7.15;4.93;;;10.40;99.90;;;;;;21012173;28;20049;-59
2021/09/07 01:10:26;;;;;;;10.57;7.03;;;10.30;99.90;;;;;;21008923;28;20390;-59
2021/09/07 01:20:28;;;;;;;7.68;4.93;;;10.30;99.90;;;;;;21013869;28;20037;-56
2021/09/07 01:30:30;;;;;;;9.82;5.72;;;10.30;99.90;;;;;;21013544;28;20078;-60
2021/09/07 01:40:34;;;;;;;10.80;6.82;;;10.20;99.90;;;;;;21021497;28;20041;-58
2021/09/07 01:50:36;;;;;;;11.32;6.28;;;10.10;99.90;;;;;;21021900;28;20033;-59
2021/09/07 02:00:38;;;;;;;13.55;7.00;;;10.00;99.90;;;;;;21013822;28;20020;-55
2021/09/07 02:10:40;;;;;;;10.07;6.82;;;10.10;99.90;;;;;;21015697;28;20025;-57
2021/09/07 02:20:42;;;;;;;17.02;9.98;;;10.20;99.90;;;;;;21013280;28;20056;-58
2021/09/07 02:30:45;;;;;;;13.48;8.05;;;10.50;99.90;;;;;;21015096;28;20035;-57
2021/09/07 02:40:47;;;;;;;17.05;8.50;;;10.50;99.90;;;;;;21011709;28;20045;-57
2021/09/07 02:50:49;;;;;;;16.52;9.13;;;10.50;99.90;;;;;;21012121;28;20044;-60
2021/09/07 03:00:51;;;;;;;14.38;8.38;;;10.40;99.90;;;;;;21008836;28;20040;-54
2021/09/07 03:10:53;;;;;;;14.07;9.23;;;10.50;99.90;;;;;;21008366;28;20075;-56
2021/09/07 03:20:55;;;;;;;14.63;9.20;;;10.50;99.90;;;;;;21002186;28;20029;-60
2021/09/07 03:30:58;;;;;;;15.60;9.90;;;10.40;99.90;;;;;;21003626;28;20547;-57
2021/09/07 03:41:00;;;;;;;11.70;7.47;;;10.30;99.90;;;;;;20999128;28;20040;-58
2021/09/07 03:51:03;;;;;;;15.32;6.65;;;10.30;99.90;;;;;;21001388;28;20386;-60
2021/09/07 04:01:08;;;;;;;9.80;5.80;;;10.30;99.90;;;;;;21004791;28;20033;-59
2021/09/07 04:11:11;;;;;;;7.60;4.88;;;10.30;99.90;;;;;;21001960;28;20062;-58
2021/09/07 04:21:16;;;;;;;8.07;5.72;;;10.20;99.90;;;;;;20994975;28;20037;-57
2021/09/07 04:31:18;;;;;;;11.18;5.30;;;10.00;99.90;;;;;;20991057;28;20037;-59
2021/09/07 04:41:20;;;;;;;9.82;7.22;;;10.10;99.90;;;;;;20996674;28;20044;-58
2021/09/07 04:51:25;;;;;;;11.18;6.85;;;10.20;99.90;;;;;;20994498;28;20086;-56
2021/09/07 05:01:26;;;;;;;10.07;5.20;;;10.40;99.90;;;;;;21002839;28;20059;-60
2021/09/07 05:11:28;;;;;;;9.00;6.10;;;10.40;99.90;;;;;;21022030;28;20028;-55
2021/09/07 05:21:30;;;;;;;10.00;6.10;;;10.30;99.90;;;;;;21017233;28;20504;-55
2021/09/07 05:31:32;;;;;;;9.25;5.78;;;10.40;99.90;;;;;;21016933;28;20426;-57
2021/09/07 05:41:34;;;;;;;7.90;5.30;;;10.50;99.90;;;;;;21008742;28;20041;-60
2021/09/07 05:51:36;;;;;;;9.65;5.65;;;10.60;99.90;;;;;;21007374;28;20098;-60
2021/09/07 06:01:38;;;;;;;9.73;5.90;;;10.60;99.90;;;;;;21012754;28;20032;-57
2021/09/07 06:11:40;;;;;;;10.05;5.85;;;10.70;99.90;;;;;;21012356;28;20024;-60
2021/09/07 06:21:42;;;;;;;10.02;5.70;;;10.80;99.90;;;;;;21015098;28;20048;-60
2021/09/07 06:31:44;;;;;;;8.10;5.10;;;10.90;99.90;;;;;;21010339;28;20048;-56
2021/09/07 06:41:47;;;;;;;8.98;4.85;;;11.30;99.90;;;;;;21005300;28;20044;-59
2021/09/07 06:51:48;;;;;;;9.23;4.97;;;12.30;99.90;;;;;;21013889;28;20040;-55
2021/09/07 07:01:50;;;;;;;7.55;4.63;;;13.70;99.90;;;;;;20997567;28;20032;-55
2021/09/07 07:11:52;;;;;;;7.63;3.75;;;14.90;99.90;;;;;;20989791;28;20044;-58
2021/09/07 07:21:54;;;;;;;6.80;4.03;;;16.40;99.90;;;;;;20987415;28;20367;-60
2021/09/07 07:31:55;;;;;;;6.05;3.55;;;16.50;99.90;;;;;;20991058;28;20094;-57
2021/09/07 07:41:58;;;;;;;4.15;3.13;;;16.40;99.90;;;;;;20992162;28;20048;-56
2021/09/07 07:52:00;;;;;;;5.80;3.40;;;17.20;99.90;;;;;;20993368;28;20037;-58
2021/09/07 08:02:01;;;;;;;5.32;3.42;;;18.30;98.60;;;;;;20992061;28;20025;-58
2021/09/07 08:12:04;;;;;;;5.45;3.67;;;19.60;94.10;;;;;;20985711;28;20040;-58
2021/09/07 08:22:09;;;;;;;5.25;3.53;;;20.10;93.70;;;;;;20985774;28;20032;-54
2021/09/07 08:32:11;;;;;;;5.75;3.40;;;20.30;93.70;;;;;;20991072;28;20028;-57
2021/09/07 08:42:14;;;;;;;4.22;3.13;;;20.80;92.10;;;;;;21000190;28;20074;-57
2021/09/07 08:52:18;;;;;;;5.38;3.30;;;20.90;92.10;;;;;;20998573;28;20031;-55
2021/09/07 09:02:22;;;;;;;5.82;3.65;;;21.30;91.00;;;;;;20998961;28;20382;-59
2021/09/07 09:12:36;;;;;;;4.75;3.40;;;21.30;88.40;;;;;;20996947;28;20446;-59
2021/09/07 09:22:42;;;;;;;6.28;3.58;;;21.50;90.00;;;;;;20997278;28;20037;-58
2021/09/07 09:32:52;;;;;;;7.13;4.10;;;21.70;89.90;;;;;;20997327;28;20032;-54
2021/09/07 09:42:58;;;;;;;5.82;4.25;;;22.00;90.30;;;;;;20995247;28;20090;-58
2021/09/07 09:53:01;;;;;;;6.22;3.65;;;22.40;87.70;;;;;;20995648;28;20492;-59
2021/09/07 10:03:09;;;;;;;4.85;3.42;;;22.80;86.80;;;;;;20997114;28;20474;-58
2021/09/07 10:13:16;;;;;;;8.55;3.78;;;22.80;85.20;;;;;;20994381;28;20106;-60
2021/09/07 10:23:57;;;;;;;4.75;3.90;;;22.60;84.40;;;;;;20995730;28;20032;-59
2021/09/07 10:33:59;;;;;;;4.93;3.80;;;22.30;84.60;;;;;;20994848;28;20032;-60
2021/09/07 10:44:29;;;;;;;5.50;3.55;;;22.10;84.30;;;;;;20993378;28;20040;-58
2021/09/07 10:54:32;;;;;;;5.88;3.88;;;22.00;84.70;;;;;;20991634;28;20048;-59
2021/09/07 11:04:34;;;;;;;3.97;3.38;;;22.40;82.90;;;;;;20995308;28;20191;-57
2021/09/07 11:14:36;;;;;;;5.97;3.78;;;23.40;83.10;;;;;;20993668;28;20412;-59
2021/09/07 11:24:37;;;;;;;5.03;3.45;;;23.80;78.90;;;;;;20992429;28;20032;-61
2021/09/07 11:34:40;;;;;;;7.18;4.57;;;23.80;81.70;;;;;;20989212;28;20029;-62
2021/09/07 11:44:47;;;;;;;5.80;3.72;;;23.20;78.60;;;;;;20987926;28;20044;-60
2021/09/07 11:54:50;;;;;;;7.97;4.93;;;22.60;82.20;;;;;;20987683;28;20382;-61
2021/09/07 12:04:59;;;;;;;9.50;4.38;;;22.60;81.20;;;;;;20987985;28;20378;-62
2021/09/07 12:15:16;;;;;;;8.25;4.50;;;22.50;82.00;;;;;;21004491;28;20032;-61
2021/09/07 12:25:18;;;;;;;9.80;4.55;;;22.20;85.70;;;;;;21002955;28;20086;-57
2021/09/07 12:35:39;;;;;;;7.60;5.13;;;22.40;85.80;;;;;;21001886;28;20488;-57
2021/09/07 12:45:43;;;;;;;9.68;6.15;;;22.90;83.30;;;;;;21000916;28;20032;-58
2021/09/07 12:55:46;;;;;;;10.25;5.93;;;23.00;79.60;;;;;;21000044;28;20478;-60
2021/09/07 13:05:48;;;;;;;14.13;6.38;;;22.60;85.30;;;;;;20999219;28;20032;-60
2021/09/07 13:15:50;;;;;;;9.30;5.35;;;22.70;84.00;;;;;;20998996;28;20032;-59
2021/09/07 13:25:52;;;;;;;10.05;6.45;;;23.10;87.10;;;;;;20996185;28;20032;-60
2021/09/07 13:35:54;;;;;;;10.40;6.88;;;23.40;82.30;;;;;;20996253;28;20403;-60
2021/09/07 13:45:56;;;;;;;9.27;6.15;;;23.30;83.10;;;;;;20996543;28;20740;-61
2021/09/07 13:55:57;;;;;;;10.25;7.32;;;23.00;81.70;;;;;;20994735;28;20029;-59
2021/09/07 14:06:00;;;;;;;9.07;6.43;;;23.00;80.70;;;;;;20995206;28;20364;-61
2021/09/07 14:16:02;;;;;;;8.38;6.38;;;22.90;79.60;;;;;;20995407;28;20528;-61
2021/09/07 14:26:06;;;;;;;9.73;6.28;;;22.50;81.30;;;;;;20993289;28;20089;-62
2021/09/07 14:36:08;;;;;;;8.98;6.28;;;22.40;81.40;;;;;;20990603;28;20036;-62
2021/09/07 14:46:10;;;;;;;12.77;6.15;;;22.20;82.40;;;;;;20991759;28;20098;-62
2021/09/07 14:56:12;;;;;;;17.40;6.35;;;21.90;82.40;;;;;;20990178;28;20028;-63
2021/09/07 15:06:14;;;;;;;11.18;5.90;;;21.50;82.50;;;;;;20991409;28;20486;-63
2021/09/07 15:16:17;;;;;;;7.85;5.93;;;21.00;83.20;;;;;;20990648;28;20470;-63
2021/09/07 15:26:18;;;;;;;7.22;5.10;;;20.30;84.00;;;;;;20989663;28;20080;-63
2021/09/07 15:36:21;;;;;;;7.43;5.13;;;19.70;86.30;;;;;;20988957;28;20032;-62
2021/09/07 15:46:22;;;;;;;7.47;5.25;;;19.40;89.80;;;;;;20987344;28;20109;-62
2021/09/07 15:56:24;;;;;;;9.07;5.38;;;19.30;90.00;;;;;;20990408;28;20043;-62
2021/09/07 16:06:26;;;;;;;11.25;5.38;;;19.20;88.40;;;;;;20973430;28;20037;-62
2021/09/07 16:16:28;;;;;;;8.82;5.50;;;19.20;90.00;;;;;;20984304;28;20028;-62
2021/09/07 16:26:29;;;;;;;8.75;5.25;;;18.90;90.80;;;;;;20985539;28;20449;-65
2021/09/07 16:36:31;;;;;;;7.97;4.43;;;18.70;90.40;;;;;;20989674;28;20090;-62
2021/09/07 16:46:33;;;;;;;7.53;4.68;;;18.30;91.50;;;;;;20991752;28;20563;-60
2021/09/07 16:56:40;;;;;;;6.80;4.78;;;17.70;91.40;;;;;;21004428;28;20336;-61
2021/09/07 17:06:41;;;;;;;6.28;4.30;;;17.10;92.50;;;;;;21011376;28;20033;-62
2021/09/07 17:16:43;;;;;;;7.10;4.70;;;16.60;94.20;;;;;;21008651;28;20115;-62
2021/09/07 17:26:45;;;;;;;7.28;5.07;;;15.90;95.70;;;;;;21005624;28;20032;-61
2021/09/07 17:47:07;;;;;;;8.60;4.97;;;14.70;98.50;;;;;;21003154;28;20449;-60
2021/09/07 17:57:10;;;;;;;8.68;4.63;;;14.20;99.30;;;;;;21006292;28;20097;-60
2021/09/07 18:07:11;;;;;;;10.95;5.65;;;13.80;99.90;;;;;;21005231;28;20036;-61
2021/09/07 18:17:13;;;;;;;8.50;5.00;;;13.60;99.90;;;;;;21006349;28;20090;-61
2021/09/07 18:27:16;;;;;;;8.40;5.30;;;13.50;99.90;;;;;;21011119;28;20032;-61
2021/09/07 18:37:19;;;;;;;9.15;5.90;;;13.40;99.90;;;;;;21013663;28;20048;-60
2021/09/07 18:47:21;;;;;;;10.02;5.22;;;13.00;99.90;;;;;;21017203;28;20482;-61
2021/09/07 18:57:24;;;;;;;11.55;5.72;;;13.00;99.90;;;;;;21009005;28;20386;-61
2021/09/07 19:07:25;;;;;;;9.77;5.45;;;13.00;99.90;;;;;;20993698;28;20039;-54
2021/09/07 19:17:30;;;;;;;9.05;6.13;;;12.70;99.90;;;;;;20987123;28;20489;-57
2021/09/07 19:27:32;;;;;;;12.55;6.22;;;12.60;99.90;;;;;;20989887;28;20025;-60
2021/09/07 19:37:35;;;;;;;11.20;6.05;;;12.70;99.90;;;;;;20986691;28;20044;-62
2021/09/07 19:47:37;;;;;;;9.30;5.90;;;12.60;99.90;;;;;;20986626;28;20040;-63
2021/09/07 19:57:39;;;;;;;11.02;6.55;;;12.50;99.90;;;;;;20986680;28;20039;-53
2021/09/07 20:07:41;;;;;;;10.85;6.38;;;12.50;99.90;;;;;;20989837;28;20032;-57
2021/09/07 20:17:43;;;;;;;10.18;6.07;;;12.80;99.90;;;;;;20987126;28;20433;-60
2021/09/07 20:27:47;;;;;;;9.85;6.18;;;12.90;99.90;;;;;;20999542;28;20028;-60
2021/09/07 20:37:53;;;;;;;11.63;6.20;;;12.80;99.90;;;;;;21018135;28;20037;-57
2021/09/07 20:47:54;;;;;;;10.98;6.03;;;12.70;99.90;;;;;;21013944;28;20032;-57
2021/09/07 20:57:56;;;;;;;9.48;5.63;;;12.60;99.90;;;;;;21004432;28;20021;-60
2021/09/07 21:07:58;;;;;;;8.68;5.13;;;12.30;99.90;;;;;;21000738;28;20037;-59
2021/09/07 21:17:59;;;;;;;5.80;3.97;;;12.10;99.90;;;;;;21002653;28;20028;-60
2021/09/07 21:28:01;;;;;;;6.57;4.07;;;12.00;99.90;;;;;;21004972;28;20082;-59
2021/09/07 21:38:03;;;;;;;5.25;2.92;;;12.30;99.90;;;;;;21000311;28;20482;-61
2021/09/07 21:48:05;;;;;;;4.68;3.00;;;12.20;99.90;;;;;;20998469;28;20041;-59
2021/09/07 21:58:08;;;;;;;4.50;2.85;;;12.30;99.90;;;;;;20982500;28;20029;-60
2021/09/07 22:08:11;;;;;;;4.75;3.05;;;12.40;99.90;;;;;;20999264;28;20055;-60
2021/09/07 22:18:13;;;;;;;5.13;3.20;;;12.50;99.90;;;;;;20996025;28;20029;-60
2021/09/07 22:28:15;;;;;;;4.57;3.00;;;12.30;99.90;;;;;;20995187;28;20032;-59
2021/09/07 22:38:17;;;;;;;6.75;3.35;;;12.50;99.90;;;;;;20992831;28;20379;-60
2021/09/07 22:48:20;;;;;;;5.53;3.97;;;12.70;99.90;;;;;;20978079;28;20036;-58
2021/09/07 22:58:23;;;;;;;5.47;3.15;;;12.90;99.90;;;;;;20995634;28;20029;-60
2021/09/07 23:08:25;;;;;;;5.57;3.08;;;12.90;99.90;;;;;;20991666;28;20032;-59
2021/09/07 23:18:27;;;;;;;5.22;3.03;;;13.00;99.90;;;;;;20993185;28;20029;-60
2021/09/07 23:28:29;;;;;;;6.03;3.40;;;12.90;99.90;;;;;;20999447;28;20048;-60
2021/09/07 23:38:31;;;;;;;5.35;3.15;;;12.70;99.90;;;;;;20991430;28;20040;-59
2021/09/07 23:48:33;;;;;;;4.68;2.92;;;12.60;99.90;;;;;;20991589;28;20117;-61
2021/09/07 23:58:36;;;;;;;6.00;3.05;;;12.40;99.90;;;;;;20990948;28;20106;-60
